Ana Sayfa
METAR-TAF:

METAR-TAF

Havaalanları :

Clinton / Burns Flat, Oklahoma, Amerika Birleşik Devletleri

Enlem: 35-21-24N, Boylam: 099-12-13W, yükseklik: 585 m

Güncel hava durumu gözlemi

Rapor saat 11:53 UTC de 55 dakika önce yapıldı.
Rüzgar güney/güneydoğudan 14 kt
Sıcaklık 23°C
Nem 78%
Basınç 1011 hPa
Görüş mesafesi: 16.1 km
9000 ft yükseklikte az bulutlu
civarda gök gürültülü fırtına

METAR: KCSM 161153Z AUTO 15014KT 10SM VCTS FEW090 23/19 A2985 RMK AO2 PK WND 14026/1136 LTG DSNT N-SE SLP079 60000 T02280194 10256 20228 56003

Saat: 07:48 (12:48 UTC)

Tahmin

Rapor saat 11:20 UTC de 1 saat ve 28 dakika önce yapıldı.
Ayın 16'si saat 12 UTC'den ayın 17'si saat 12 UTC'ye kadar geçerli Tahmin
Rüzgar güneydan 18 kt ve 28 kt'a kadar ani rüzgarlar
Görüş mesafesi: 10 km
9000 ft yükseklikte parçalı bulutlu
Ayın 17'si saat 0000 UTC'den
Rüzgar güney/güneydoğudan 17 kt
Görüş mesafesi: 10 km
Açık gökyüzü

TAF: KCSM 161120Z 1612/1712 18018G28KT P6SM SCT090 FM170000 16017KT P6SM SKC

4.000'den fazla havaalanı için hava durumu gözlemleri ve tahminleri (METAR ve TAF raporları).

Kullanılabilir istasyonlar harita üzerinde sarı ve kırmızı noktalarla gösterilir.

İstasyonun adını görmek için fareyi noktanın üzerinde gezdirin.

Sonrasında hava gözlem ve tahminlerini görmek için tıklayın.

Haritayı değiştirmek için: yaklaştırmak için siyah artı işaretli yeşil düğmeye ve uzaklaştırmak için de eksi işaretli düğmeye hızla tıklayın; bitişik haritalar için yeşil okları kullanın.


METAR-TAF: